Urania — PAFG — position and weather

sailwx.info

Track history (hours):
 
Tides and Currents Weather Stations Pressure Air Temp Water Temp Dewpoint Dewpoint Depression Visibility Wind Speed Wind Dir Waves Ship Positions

Urania (Netherlands)

Flagship of the Royal Netherlands Naval College.

Last reported at 2017-Sep-22 01:59 UTC. Time now 2017-Sep-22 17:04 UTC.
Position N 52°42' E 005°18'.

Length 27 m; draft 2.6 m.

Type: Sailing vessel. MMSI: 245804000.

Date/timePositionNaut miles runAvg speedWind from/ knotsBaromVisibWave heightAir tempDewpointWater temp
2017-Sep-22 01:59N 52°42' E 005°18'0 0.0
2017-Sep-22 01:29N 52°42' E 005°18'0 0.0
2017-Sep-22 00:59N 52°42' E 005°18'0 0.0
2017-Sep-22 00:29N 52°42' E 005°18'0 0.0
2017-Sep-21 23:59N 52°42' E 005°18'0 0.0
2017-Sep-21 23:29N 52°42' E 005°18'0 0.0
2017-Sep-21 22:59N 52°42' E 005°18'0 0.0
2017-Sep-21 22:29N 52°42' E 005°18'0 0.0
2017-Sep-21 21:59N 52°42' E 005°18'0 0.0
2017-Sep-21 21:29N 52°42' E 005°18'0 0.0
2017-Sep-21 20:59N 52°42' E 005°18'0 0.0
2017-Sep-21 20:29N 52°42' E 005°18'0 0.0
2017-Sep-21 19:59N 52°42' E 005°18'0 0.0
2017-Sep-21 19:29N 52°42' E 005°18'0 0.0
2017-Sep-21 18:59N 52°42' E 005°18'0 0.0
2017-Sep-21 18:29N 52°42' E 005°18'0 0.0
2017-Sep-21 17:59N 52°42' E 005°18'0 0.0
2017-Sep-21 17:29N 52°42' E 005°18'0 0.0
2017-Sep-21 16:59N 52°42' E 005°18'0 0.0
2017-Sep-21 16:29N 52°42' E 005°18'0 0.0
2017-Sep-21 15:59N 52°42' E 005°18'0 0.0
2017-Sep-21 15:29N 52°42' E 005°18'0 0.0
2017-Sep-21 14:59N 52°42' E 005°18'0 0.0
2017-Sep-21 14:29N 52°42' E 005°18'0 0.9
2017-Sep-21 14:00N 52°42' E 005°18'2 3.0
2017-Sep-21 13:30N 52°43' E 005°21'2 3.4
2017-Sep-21 13:00N 52°44' E 005°18'2 4.6
2017-Sep-21 12:30N 52°44' E 005°22'3 5.4
2017-Sep-21 12:00N 52°45' E 005°26'2 4.7
2017-Sep-21 11:30N 52°46' E 005°23'3 6.4
2017-Sep-21 11:00N 52°46' E 005°18'3 6.8
2017-Sep-21 10:30N 52°46' E 005°12'0 0.5
2017-Sep-21 10:00N 52°46' E 005°12'3 6.1
2017-Sep-21 09:30N 52°45' E 005°16'2 4.6
2017-Sep-21 09:00N 52°43' E 005°18'1 1.4
2017-Sep-21 08:30N 52°42' E 005°19'1 1.5
2017-Sep-21 07:58N 52°42' E 005°18'0 0.0
2017-Sep-21 07:28N 52°42' E 005°18'0 0.0
2017-Sep-21 06:58N 52°42' E 005°18'0 0.0
2017-Sep-21 06:28N 52°42' E 005°18'0 0.0
2017-Sep-21 05:58N 52°42' E 005°18'0 0.0
2017-Sep-21 05:28N 52°42' E 005°18'0 0.0
2017-Sep-21 04:58N 52°42' E 005°18'0 0.0
2017-Sep-21 04:31N 52°42' E 005°18'0 0.0
2017-Sep-21 04:01N 52°42' E 005°18'0 0.0
2017-Sep-21 03:30N 52°42' E 005°18'0 0.0
2017-Sep-21 03:00N 52°42' E 005°18'0 0.0
2017-Sep-21 02:30N 52°42' E 005°18'0 0.0
2017-Sep-21 02:00N 52°42' E 005°18'0 0.0
2017-Sep-21 01:30N 52°42' E 005°18'0 0.0
2017-Sep-21 01:00N 52°42' E 005°18'0 0.0
2017-Sep-21 00:30N 52°42' E 005°18'0 0.0
2017-Sep-21 00:00N 52°42' E 005°18'0 0.0
2017-Sep-20 23:30N 52°42' E 005°18'0 0.0
2017-Sep-20 23:00N 52°42' E 005°18'0 0.0
2017-Sep-20 22:30N 52°42' E 005°18'0 0.0
2017-Sep-20 22:00N 52°42' E 005°18'0 0.0
2017-Sep-20 21:30N 52°42' E 005°18'0 0.0
2017-Sep-20 21:00N 52°42' E 005°18'0 0.0
2017-Sep-20 20:30N 52°42' E 005°18'0 0.0
2017-Sep-20 20:00N 52°42' E 005°18'0 0.0
2017-Sep-20 19:30N 52°42' E 005°18'0 0.0
2017-Sep-20 19:00N 52°42' E 005°18'0 0.0
2017-Sep-20 18:30N 52°42' E 005°18'0 0.0
2017-Sep-20 18:00N 52°42' E 005°18'0 0.0
2017-Sep-20 17:30N 52°42' E 005°18'0 0.0
2017-Sep-20 17:00N 52°42' E 005°18'0 0.0
2017-Sep-20 16:30N 52°42' E 005°18'0 0.0
2017-Sep-20 16:00N 52°42' E 005°18'0 0.0
2017-Sep-20 15:30N 52°42' E 005°18'0 0.0
2017-Sep-20 15:00N 52°42' E 005°18'0 0.0
2017-Sep-20 14:00N 52°42' E 005°18'2 3.4
2017-Sep-20 13:30N 52°44' E 005°19'3 5.8
2017-Sep-20 13:00N 52°46' E 005°19'3 5.6
2017-Sep-20 12:30N 52°49' E 005°18'3 5.2
2017-Sep-20 12:00N 52°52' E 005°19'2 3.6
2017-Sep-20 11:30N 52°53' E 005°21'0 0.0
2017-Sep-20 11:00N 52°53' E 005°21'1 1.3
2017-Sep-20 10:30N 52°53' E 005°20'2 3.6
2017-Sep-20 10:00N 52°51' E 005°19'3 5.7
2017-Sep-20 09:30N 52°49' E 005°18'3 5.7
2017-Sep-20 09:00N 52°46' E 005°20'2 4.7
2017-Sep-20 08:30N 52°43' E 005°20'1 1.9
2017-Sep-20 08:00N 52°43' E 005°19'1 2.2
2017-Sep-20 07:29N 52°42' E 005°18'0 0.0
2017-Sep-20 06:59N 52°42' E 005°18'0 0.0
2017-Sep-20 06:29N 52°42' E 005°18'0 0.0
2017-Sep-20 05:59N 52°42' E 005°18'0 0.0
2017-Sep-20 05:29N 52°42' E 005°18'0 0.0
2017-Sep-20 04:59N 52°42' E 005°18'0 0.0
2017-Sep-20 04:29N 52°42' E 005°18'0 0.0
2017-Sep-20 03:59N 52°42' E 005°18'0 0.0
2017-Sep-20 03:29N 52°42' E 005°18'0 0.0
2017-Sep-20 02:59N 52°42' E 005°18'0 0.0
2017-Sep-20 02:29N 52°42' E 005°18'0 0.0
2017-Sep-20 01:59N 52°42' E 005°18'0 0.0
2017-Sep-20 01:29N 52°42' E 005°18'0 0.0
2017-Sep-20 00:59N 52°42' E 005°18'0 0.0
2017-Sep-20 00:29N 52°42' E 005°18'0 0.0
2017-Sep-19 23:59N 52°42' E 005°18'0 0.0
2017-Sep-19 23:29N 52°42' E 005°18'0 0.0
2017-Sep-19 22:59N 52°42' E 005°18'0 0.0
2017-Sep-19 22:29N 52°42' E 005°18'0 0.0
2017-Sep-19 21:59N 52°42' E 005°18'0 0.0
2017-Sep-19 21:29N 52°42' E 005°18'0 0.0
2017-Sep-19 20:59N 52°42' E 005°18'0 0.0
2017-Sep-19 20:29N 52°42' E 005°18'0 0.0
2017-Sep-19 19:59N 52°42' E 005°18'0 0.0
2017-Sep-19 19:29N 52°42' E 005°18'0 0.0
2017-Sep-19 18:59N 52°42' E 005°18'0 0.0
2017-Sep-19 18:29N 52°42' E 005°18'0 0.0
2017-Sep-19 17:59N 52°42' E 005°18'0 0.0
2017-Sep-19 17:29N 52°42' E 005°18'0 0.0
2017-Sep-19 16:59N 52°42' E 005°18'0 0.0
2017-Sep-19 16:29N 52°42' E 005°18'0 0.0
2017-Sep-19 15:59N 52°42' E 005°18'0 0.0
2017-Sep-19 15:29N 52°42' E 005°18'0 0.0
2017-Sep-19 15:01N 52°42' E 005°18'0 0.0
2017-Sep-19 14:31N 52°42' E 005°18'0 0.0
2017-Sep-19 14:01N 52°42' E 005°18'1 1.7
2017-Sep-19 13:30N 52°43' E 005°19'1 2.7
2017-Sep-19 13:01N 52°44' E 005°18'2 3.6
2017-Sep-19 12:30N 52°45' E 005°17'1 2.4
2017-Sep-19 12:01N 52°46' E 005°15'1 3.0
2017-Sep-19 11:31N 52°47' E 005°13'1 1.6
2017-Sep-19 11:01N 52°46' E 005°12'2 3.4
2017-Sep-19 10:30N 52°46' E 005°14'1 3.0
2017-Sep-19 10:00N 52°46' E 005°17'2 3.3
2017-Sep-19 09:30N 52°44' E 005°18'1 2.7
2017-Sep-19 09:00N 52°43' E 005°19'1 1.4
2017-Sep-19 08:31N 52°42' E 005°18'1 1.1
2017-Sep-19 07:59N 52°42' E 005°18'0 0.0
2017-Sep-19 07:29N 52°42' E 005°18'0 0.0
2017-Sep-19 06:59N 52°42' E 005°18'0 0.0
2017-Sep-19 06:29N 52°42' E 005°18'0 0.0
2017-Sep-19 05:59N 52°42' E 005°18'0 0.0
2017-Sep-19 05:29N 52°42' E 005°18'0 0.0
2017-Sep-19 04:59N 52°42' E 005°18'0 0.0
2017-Sep-19 04:29N 52°42' E 005°18'0 0.0
2017-Sep-19 03:59N 52°42' E 005°18'0 0.0
2017-Sep-19 03:29N 52°42' E 005°18'0 0.0
2017-Sep-19 02:59N 52°42' E 005°18'0 0.0
2017-Sep-19 02:29N 52°42' E 005°18'0 0.0
2017-Sep-19 01:59N 52°42' E 005°18'0 0.0
2017-Sep-19 01:29N 52°42' E 005°18'0 0.0
2017-Sep-19 00:59N 52°42' E 005°18'0 0.0
2017-Sep-19 00:29N 52°42' E 005°18'0 0.0
2017-Sep-18 23:59N 52°42' E 005°18'0 0.0
2017-Sep-18 23:29N 52°42' E 005°18'0 0.0
2017-Sep-18 22:59N 52°42' E 005°18'0 0.0
2017-Sep-18 22:29N 52°42' E 005°18'0 0.0
2017-Sep-18 21:59N 52°42' E 005°18'0 0.0
2017-Sep-18 21:29N 52°42' E 005°18'0 0.0
2017-Sep-18 20:59N 52°42' E 005°18'0 0.0
2017-Sep-18 20:29N 52°42' E 005°18'0 0.0
2017-Sep-18 19:59N 52°42' E 005°18'0 0.0
2017-Sep-18 19:29N 52°42' E 005°18'0 0.0
2017-Sep-18 18:59N 52°42' E 005°18'0 0.0
2017-Sep-18 18:29N 52°42' E 005°18'0 0.0
2017-Sep-18 17:59N 52°42' E 005°18'0 0.0
2017-Sep-18 17:29N 52°42' E 005°18'0 0.0
2017-Sep-18 16:59N 52°42' E 005°18'0 0.0
2017-Sep-18 16:29N 52°42' E 005°18'0 0.0
2017-Sep-18 15:59N 52°42' E 005°18'0 0.0
2017-Sep-18 15:29N 52°42' E 005°18'0 0.0
2017-Sep-18 14:59N 52°42' E 005°18'0 0.0
2017-Sep-18 14:29N 52°42' E 005°18'0 0.0
2017-Sep-18 13:59N 52°42' E 005°18'0 0.0
2017-Sep-18 13:26N 52°42' E 005°18'0 0.0
2017-Sep-18 12:59N 52°42' E 005°18'0 0.0
2017-Sep-18 12:29N 52°42' E 005°18'0 0.0
2017-Sep-18 11:59N 52°42' E 005°18'0 0.0
2017-Sep-18 11:29N 52°42' E 005°18'0 0.0
2017-Sep-18 10:59N 52°42' E 005°18'0 0.0
2017-Sep-18 10:29N 52°42' E 005°18'0 0.0
2017-Sep-18 09:59N 52°42' E 005°18'0 0.0
2017-Sep-18 09:29N 52°42' E 005°18'0 0.0
2017-Sep-18 08:59N 52°42' E 005°18'0 0.0
2017-Sep-18 08:29N 52°42' E 005°18'0 0.0
2017-Sep-18 07:59N 52°42' E 005°18'0 0.0
2017-Sep-18 07:29N 52°42' E 005°18'0 0.0
2017-Sep-18 06:59N 52°42' E 005°18'0 0.0
2017-Sep-18 06:29N 52°42' E 005°18'0 0.0
2017-Sep-18 05:59N 52°42' E 005°18'0 0.0
2017-Sep-18 05:29N 52°42' E 005°18'0 0.0
2017-Sep-18 04:59N 52°42' E 005°18'0 0.0
2017-Sep-18 04:29N 52°42' E 005°18'0 0.0
2017-Sep-18 03:59N 52°42' E 005°18'0 0.0
2017-Sep-18 03:28N 52°42' E 005°18'0 0.0
2017-Sep-18 02:58N 52°42' E 005°18'0 0.0
2017-Sep-18 02:28N 52°42' E 005°18'0 0.0
2017-Sep-18 01:58N 52°42' E 005°18'0 0.0
2017-Sep-18 01:28N 52°42' E 005°18'0 0.0
2017-Sep-18 00:58N 52°42' E 005°18'0 0.0
2017-Sep-18 00:28N 52°42' E 005°18'0 0.0
2017-Sep-17 23:55N 52°42' E 005°18'0 0.0
2017-Sep-17 23:28N 52°42' E 005°18'0 0.0
2017-Sep-17 22:58N 52°42' E 005°18'0 0.0
2017-Sep-17 22:28N 52°42' E 005°18'0 0.0
2017-Sep-17 21:58N 52°42' E 005°18'0 0.0
2017-Sep-17 21:28N 52°42' E 005°18'0 0.0
2017-Sep-17 20:58N 52°42' E 005°18'0 0.0
2017-Sep-17 20:28N 52°42' E 005°18'0 0.0
2017-Sep-17 19:58N 52°42' E 005°18'0 0.0
2017-Sep-17 19:28N 52°42' E 005°18'0 0.0
2017-Sep-17 18:58N 52°42' E 005°18'0 0.0
2017-Sep-17 18:28N 52°42' E 005°18'0 0.0
2017-Sep-17 17:58N 52°42' E 005°18'0 0.0
2017-Sep-17 17:25N 52°42' E 005°18'0 0.0
2017-Sep-17 16:58N 52°42' E 005°18'0 0.0
2017-Sep-17 16:28N 52°42' E 005°18'0 0.0
2017-Sep-17 15:58N 52°42' E 005°18'0 0.0
2017-Sep-17 15:28N 52°42' E 005°18'0 0.0
2017-Sep-17 14:58N 52°42' E 005°18'0 0.0
2017-Sep-17 14:28N 52°42' E 005°18'0 0.0
2017-Sep-17 13:58N 52°42' E 005°18'0 0.0
2017-Sep-17 13:28N 52°42' E 005°18'0 0.0
2017-Sep-17 12:58N 52°42' E 005°18'0 0.0
2017-Sep-17 12:28N 52°42' E 005°18'0 0.0
2017-Sep-17 11:58N 52°42' E 005°18'0 0.0
2017-Sep-17 11:28N 52°42' E 005°18'0 0.0
2017-Sep-17 10:58N 52°42' E 005°18'0 0.0
2017-Sep-17 10:28N 52°42' E 005°18'0 0.0
2017-Sep-17 09:58N 52°42' E 005°18'0 0.0
2017-Sep-17 09:28N 52°42' E 005°18'0 0.0
2017-Sep-17 08:58N 52°42' E 005°18'0 0.0
2017-Sep-17 08:28N 52°42' E 005°18'0 0.0
2017-Sep-17 07:58N 52°42' E 005°18'0 0.0
2017-Sep-17 07:28N 52°42' E 005°18'0 0.0
2017-Sep-17 06:58N 52°42' E 005°18'0 0.0
2017-Sep-17 06:28N 52°42' E 005°18'0 0.0
2017-Sep-17 05:58N 52°42' E 005°18'0 0.0
2017-Sep-17 05:28N 52°42' E 005°18'0 0.0
2017-Sep-17 04:58N 52°42' E 005°18'0 0.0
2017-Sep-17 04:28N 52°42' E 005°18'0 0.0
2017-Sep-17 03:58N 52°42' E 005°18'0 0.0
2017-Sep-17 03:28N 52°42' E 005°18'0 0.0
2017-Sep-17 02:58N 52°42' E 005°18'0 0.0
2017-Sep-17 02:28N 52°42' E 005°18'0 0.0
2017-Sep-17 01:58N 52°42' E 005°18'0 0.0
2017-Sep-17 01:28N 52°42' E 005°18'0 0.0
2017-Sep-17 00:58N 52°42' E 005°18'0 0.0
2017-Sep-17 00:28N 52°42' E 005°18'0 0.0
2017-Sep-16 23:58N 52°42' E 005°18'0 0.0
2017-Sep-16 23:28N 52°42' E 005°18'0 0.0
2017-Sep-16 22:58N 52°42' E 005°18'0 0.0
2017-Sep-16 22:28N 52°42' E 005°18'0 0.0
2017-Sep-16 21:58N 52°42' E 005°18'0 0.0
2017-Sep-16 21:28N 52°42' E 005°18'0 0.0
2017-Sep-16 20:58N 52°42' E 005°18'0 0.0
2017-Sep-16 20:28N 52°42' E 005°18'0 0.0
2017-Sep-16 19:58N 52°42' E 005°18'0 0.0
2017-Sep-16 19:28N 52°42' E 005°18'0 0.0
2017-Sep-16 18:58N 52°42' E 005°18'0 0.0
2017-Sep-16 18:28N 52°42' E 005°18'0 0.0
2017-Sep-16 17:58N 52°42' E 005°18'0 0.0
2017-Sep-16 17:28N 52°42' E 005°18'0 0.0
2017-Sep-16 16:58N 52°42' E 005°18'0 0.0
2017-Sep-16 16:28N 52°42' E 005°18'0 0.0
2017-Sep-16 15:58N 52°42' E 005°18'0 0.0
2017-Sep-16 15:28N 52°42' E 005°18'0 0.0
2017-Sep-16 14:58N 52°42' E 005°18'0 0.0
2017-Sep-16 14:28N 52°42' E 005°18'0 0.0
2017-Sep-16 13:58N 52°42' E 005°18'0 0.0
2017-Sep-16 13:28N 52°42' E 005°18'0 0.0
2017-Sep-16 13:01N 52°42' E 005°18'0 0.0
2017-Sep-16 12:31N 52°42' E 005°18'0 0.0
2017-Sep-16 12:00N 52°42' E 005°18'0 0.0
2017-Sep-16 11:30N 52°42' E 005°18'0 0.0
2017-Sep-16 11:00N 52°42' E 005°18'0 0.0
2017-Sep-16 10:30N 52°42' E 005°18'0 0.0
2017-Sep-16 09:57N 52°42' E 005°18'0 0.0
2017-Sep-16 09:27N 52°42' E 005°18'0 0.0
2017-Sep-16 08:57N 52°42' E 005°18'0 0.0
2017-Sep-16 08:30N 52°42' E 005°18'0 0.0
2017-Sep-16 08:00N 52°42' E 005°18'0 0.0
2017-Sep-16 07:30N 52°42' E 005°18'0 0.0
2017-Sep-16 07:00N 52°42' E 005°18'0 0.0
2017-Sep-16 06:30N 52°42' E 005°18'0 0.0
2017-Sep-16 05:57N 52°42' E 005°18'0 0.0
2017-Sep-16 05:30N 52°42' E 005°18'0 0.0
2017-Sep-16 04:54N 52°42' E 005°18'0 0.0
2017-Sep-16 04:30N 52°42' E 005°18'0 0.0
2017-Sep-16 04:00N 52°42' E 005°18'0 0.0
2017-Sep-16 03:30N 52°42' E 005°18'0 0.0
2017-Sep-16 03:00N 52°42' E 005°18'0 0.0
2017-Sep-16 02:30N 52°42' E 005°18'0 0.0
2017-Sep-16 02:00N 52°42' E 005°18'0 0.0
2017-Sep-16 01:27N 52°42' E 005°18'0 0.0
2017-Sep-16 00:54N 52°42' E 005°18'0 0.0
2017-Sep-16 00:30N 52°42' E 005°18'0 0.0
2017-Sep-16 00:00N 52°42' E 005°18'0 0.0
2017-Sep-15 23:27N 52°42' E 005°18'0 0.0
2017-Sep-15 23:00N 52°42' E 005°18'0 0.0
2017-Sep-15 22:30N 52°42' E 005°18'0 0.0
2017-Sep-15 22:00N 52°42' E 005°18'0 0.0
2017-Sep-15 21:30N 52°42' E 005°18'0 0.0
2017-Sep-15 21:00N 52°42' E 005°18'0 0.0
2017-Sep-15 20:30N 52°42' E 005°18'0 0.0
2017-Sep-15 20:00N 52°42' E 005°18'0 0.0
2017-Sep-15 19:30N 52°42' E 005°18'0 0.0
2017-Sep-15 19:00N 52°42' E 005°18'0 0.0
2017-Sep-15 18:21N 52°42' E 005°18'0 0.0
2017-Sep-15 18:00N 52°42' E 005°18'0 0.0
2017-Sep-15 17:30N 52°42' E 005°18'0 0.0
2017-Sep-15 17:00N 52°42' E 005°18'0 0.0
2017-Sep-15 16:30N 52°42' E 005°18'0 0.0
2017-Sep-15 16:00N 52°42' E 005°18'0 0.0
2017-Sep-15 15:30N 52°42' E 005°18'0 0.0
2017-Sep-15 15:00N 52°42' E 005°18'0 0.0
2017-Sep-15 14:30N 52°42' E 005°18'0 0.0
2017-Sep-15 14:00N 52°42' E 005°18'1 1.9
2017-Sep-15 13:30N 52°42' E 005°19'2 3.4
2017-Sep-15 13:00N 52°44' E 005°20'2 4.5
2017-Sep-15 12:30N 52°46' E 005°17'1 1.5
2017-Sep-15 12:00N 52°46' E 005°17'3 5.7
2017-Sep-15 11:30N 52°46' E 005°21'3 6.5
2017-Sep-15 11:00N 52°44' E 005°26'4 7.2
2017-Sep-15 10:30N 52°43' E 005°32'3 5.2
2017-Sep-15 10:00N 52°43' E 005°27'3 5.1
2017-Sep-15 09:30N 52°43' E 005°23'2 3.9
2017-Sep-15 09:00N 52°43' E 005°20'1 1.1
2017-Sep-15 08:30N 52°43' E 005°19'1 2.0
2017-Sep-15 08:00N 52°42' E 005°18'0 0.0
2017-Sep-15 07:30N 52°42' E 005°18'0 0.0
2017-Sep-15 07:00N 52°42' E 005°18'0 0.0
2017-Sep-15 06:30N 52°42' E 005°18'  
2017-Sep-12 16:04N 52°42' E 005°18'0 0.0
2017-Sep-12 16:00N 52°42' E 005°18'0 0.3
2017-Sep-12 15:29N 52°42' E 005°18'0 0.0
2017-Sep-12 14:59N 52°42' E 005°18'0 0.0
2017-Sep-12 14:29N 52°42' E 005°18'0 0.6
2017-Sep-12 14:00N 52°42' E 005°18'2 4.9
2017-Sep-12 13:30N 52°44' E 005°20'2 4.0
2017-Sep-12 13:00N 52°43' E 005°22'3 6.6
2017-Sep-12 12:30N 52°46' E 005°20'2 3.7
2017-Sep-12 12:00N 52°47' E 005°17'3 6.7
2017-Sep-12 11:30N 52°44' E 005°19'1 2.5
2017-Sep-12 11:01N 52°42' E 005°19'1 1.6
2017-Sep-12 10:29N 52°42' E 005°18'0 0.0
2017-Sep-12 09:59N 52°42' E 005°18'0 0.0
2017-Sep-12 09:29N 52°42' E 005°18'0 0.0
2017-Sep-12 08:59N 52°42' E 005°18'0 0.0
2017-Sep-12 08:29N 52°42' E 005°18'0 0.0
2017-Sep-12 07:59N 52°42' E 005°18'0 0.0
2017-Sep-12 07:29N 52°42' E 005°18'0 0.0
2017-Sep-12 06:59N 52°42' E 005°18'  
Track history (hours):
 
Tides and Currents Weather Stations Pressure Air Temp Water Temp Dewpoint Dewpoint Depression Visibility Wind Speed Wind Dir Waves Ship Positions

Urania (Netherlands)

Flagship of the Royal Netherlands Naval College.

Last reported at 2017-Sep-22 01:59 UTC. Time now 2017-Sep-22 17:04 UTC.
Position N 52°42' E 005°18'.

Length 27 m; draft 2.6 m.

Type: Sailing vessel. MMSI: 245804000.

Date/timePositionNaut miles runAvg speedWind from/ knotsBaromVisibWave heightAir tempDewpointWater temp
2017-Sep-22 01:59N 52°42' E 005°18'0 0.0
2017-Sep-22 01:29N 52°42' E 005°18'0 0.0
2017-Sep-22 00:59N 52°42' E 005°18'0 0.0
2017-Sep-22 00:29N 52°42' E 005°18'0 0.0
2017-Sep-21 23:59N 52°42' E 005°18'0 0.0
2017-Sep-21 23:29N 52°42' E 005°18'0 0.0
2017-Sep-21 22:59N 52°42' E 005°18'0 0.0
2017-Sep-21 22:29N 52°42' E 005°18'0 0.0
2017-Sep-21 21:59N 52°42' E 005°18'0 0.0
2017-Sep-21 21:29N 52°42' E 005°18'0 0.0
2017-Sep-21 20:59N 52°42' E 005°18'0 0.0
2017-Sep-21 20:29N 52°42' E 005°18'0 0.0
2017-Sep-21 19:59N 52°42' E 005°18'0 0.0
2017-Sep-21 19:29N 52°42' E 005°18'0 0.0
2017-Sep-21 18:59N 52°42' E 005°18'0 0.0
2017-Sep-21 18:29N 52°42' E 005°18'0 0.0
2017-Sep-21 17:59N 52°42' E 005°18'0 0.0
2017-Sep-21 17:29N 52°42' E 005°18'0 0.0
2017-Sep-21 16:59N 52°42' E 005°18'0 0.0
2017-Sep-21 16:29N 52°42' E 005°18'0 0.0
2017-Sep-21 15:59N 52°42' E 005°18'0 0.0
2017-Sep-21 15:29N 52°42' E 005°18'0 0.0
2017-Sep-21 14:59N 52°42' E 005°18'0 0.0
2017-Sep-21 14:29N 52°42' E 005°18'0 0.9
2017-Sep-21 14:00N 52°42' E 005°18'2 3.0
2017-Sep-21 13:30N 52°43' E 005°21'2 3.4
2017-Sep-21 13:00N 52°44' E 005°18'2 4.6
2017-Sep-21 12:30N 52°44' E 005°22'3 5.4
2017-Sep-21 12:00N 52°45' E 005°26'2 4.7
2017-Sep-21 11:30N 52°46' E 005°23'3 6.4
2017-Sep-21 11:00N 52°46' E 005°18'3 6.8
2017-Sep-21 10:30N 52°46' E 005°12'0 0.5
2017-Sep-21 10:00N 52°46' E 005°12'3 6.1
2017-Sep-21 09:30N 52°45' E 005°16'2 4.6
2017-Sep-21 09:00N 52°43' E 005°18'1 1.4
2017-Sep-21 08:30N 52°42' E 005°19'1 1.5
2017-Sep-21 07:58N 52°42' E 005°18'0 0.0
2017-Sep-21 07:28N 52°42' E 005°18'0 0.0
2017-Sep-21 06:58N 52°42' E 005°18'0 0.0
2017-Sep-21 06:28N 52°42' E 005°18'0 0.0
2017-Sep-21 05:58N 52°42' E 005°18'0 0.0
2017-Sep-21 05:28N 52°42' E 005°18'0 0.0
2017-Sep-21 04:58N 52°42' E 005°18'0 0.0
2017-Sep-21 04:31N 52°42' E 005°18'0 0.0
2017-Sep-21 04:01N 52°42' E 005°18'0 0.0
2017-Sep-21 03:30N 52°42' E 005°18'0 0.0
2017-Sep-21 03:00N 52°42' E 005°18'0 0.0
2017-Sep-21 02:30N 52°42' E 005°18'0 0.0
2017-Sep-21 02:00N 52°42' E 005°18'0 0.0
2017-Sep-21 01:30N 52°42' E 005°18'0 0.0
2017-Sep-21 01:00N 52°42' E 005°18'0 0.0
2017-Sep-21 00:30N 52°42' E 005°18'0 0.0
2017-Sep-21 00:00N 52°42' E 005°18'0 0.0
2017-Sep-20 23:30N 52°42' E 005°18'0 0.0
2017-Sep-20 23:00N 52°42' E 005°18'0 0.0
2017-Sep-20 22:30N 52°42' E 005°18'0 0.0
2017-Sep-20 22:00N 52°42' E 005°18'0 0.0
2017-Sep-20 21:30N 52°42' E 005°18'0 0.0
2017-Sep-20 21:00N 52°42' E 005°18'0 0.0
2017-Sep-20 20:30N 52°42' E 005°18'0 0.0
2017-Sep-20 20:00N 52°42' E 005°18'0 0.0
2017-Sep-20 19:30N 52°42' E 005°18'0 0.0
2017-Sep-20 19:00N 52°42' E 005°18'0 0.0
2017-Sep-20 18:30N 52°42' E 005°18'0 0.0
2017-Sep-20 18:00N 52°42' E 005°18'0 0.0
2017-Sep-20 17:30N 52°42' E 005°18'0 0.0
2017-Sep-20 17:00N 52°42' E 005°18'0 0.0
2017-Sep-20 16:30N 52°42' E 005°18'0 0.0
2017-Sep-20 16:00N 52°42' E 005°18'0 0.0
2017-Sep-20 15:30N 52°42' E 005°18'0 0.0
2017-Sep-20 15:00N 52°42' E 005°18'0 0.0
2017-Sep-20 14:00N 52°42' E 005°18'2 3.4
2017-Sep-20 13:30N 52°44' E 005°19'3 5.8
2017-Sep-20 13:00N 52°46' E 005°19'3 5.6
2017-Sep-20 12:30N 52°49' E 005°18'3 5.2
2017-Sep-20 12:00N 52°52' E 005°19'2 3.6
2017-Sep-20 11:30N 52°53' E 005°21'0 0.0
2017-Sep-20 11:00N 52°53' E 005°21'1 1.3
2017-Sep-20 10:30N 52°53' E 005°20'2 3.6
2017-Sep-20 10:00N 52°51' E 005°19'3 5.7
2017-Sep-20 09:30N 52°49' E 005°18'3 5.7
2017-Sep-20 09:00N 52°46' E 005°20'2 4.7
2017-Sep-20 08:30N 52°43' E 005°20'1 1.9
2017-Sep-20 08:00N 52°43' E 005°19'1 2.2
2017-Sep-20 07:29N 52°42' E 005°18'0 0.0
2017-Sep-20 06:59N 52°42' E 005°18'0 0.0
2017-Sep-20 06:29N 52°42' E 005°18'0 0.0
2017-Sep-20 05:59N 52°42' E 005°18'0 0.0
2017-Sep-20 05:29N 52°42' E 005°18'0 0.0
2017-Sep-20 04:59N 52°42' E 005°18'0 0.0
2017-Sep-20 04:29N 52°42' E 005°18'0 0.0
2017-Sep-20 03:59N 52°42' E 005°18'0 0.0
2017-Sep-20 03:29N 52°42' E 005°18'0 0.0
2017-Sep-20 02:59N 52°42' E 005°18'0 0.0
2017-Sep-20 02:29N 52°42' E 005°18'0 0.0
2017-Sep-20 01:59N 52°42' E 005°18'0 0.0
2017-Sep-20 01:29N 52°42' E 005°18'0 0.0
2017-Sep-20 00:59N 52°42' E 005°18'0 0.0
2017-Sep-20 00:29N 52°42' E 005°18'0 0.0
2017-Sep-19 23:59N 52°42' E 005°18'0 0.0
2017-Sep-19 23:29N 52°42' E 005°18'0 0.0
2017-Sep-19 22:59N 52°42' E 005°18'0 0.0
2017-Sep-19 22:29N 52°42' E 005°18'0 0.0
2017-Sep-19 21:59N 52°42' E 005°18'0 0.0
2017-Sep-19 21:29N 52°42' E 005°18'0 0.0
2017-Sep-19 20:59N 52°42' E 005°18'0 0.0
2017-Sep-19 20:29N 52°42' E 005°18'0 0.0
2017-Sep-19 19:59N 52°42' E 005°18'0 0.0
2017-Sep-19 19:29N 52°42' E 005°18'0 0.0
2017-Sep-19 18:59N 52°42' E 005°18'0 0.0
2017-Sep-19 18:29N 52°42' E 005°18'0 0.0
2017-Sep-19 17:59N 52°42' E 005°18'0 0.0
2017-Sep-19 17:29N 52°42' E 005°18'0 0.0
2017-Sep-19 16:59N 52°42' E 005°18'0 0.0
2017-Sep-19 16:29N 52°42' E 005°18'0 0.0
2017-Sep-19 15:59N 52°42' E 005°18'0 0.0
2017-Sep-19 15:29N 52°42' E 005°18'0 0.0
2017-Sep-19 15:01N 52°42' E 005°18'0 0.0
2017-Sep-19 14:31N 52°42' E 005°18'0 0.0
2017-Sep-19 14:01N 52°42' E 005°18'1 1.7
2017-Sep-19 13:30N 52°43' E 005°19'1 2.7
2017-Sep-19 13:01N 52°44' E 005°18'2 3.6
2017-Sep-19 12:30N 52°45' E 005°17'1 2.4
2017-Sep-19 12:01N 52°46' E 005°15'1 3.0
2017-Sep-19 11:31N 52°47' E 005°13'1 1.6
2017-Sep-19 11:01N 52°46' E 005°12'2 3.4
2017-Sep-19 10:30N 52°46' E 005°14'1 3.0
2017-Sep-19 10:00N 52°46' E 005°17'2 3.3
2017-Sep-19 09:30N 52°44' E 005°18'1 2.7
2017-Sep-19 09:00N 52°43' E 005°19'1 1.4
2017-Sep-19 08:31N 52°42' E 005°18'1 1.1
2017-Sep-19 07:59N 52°42' E 005°18'0 0.0
2017-Sep-19 07:29N 52°42' E 005°18'0 0.0
2017-Sep-19 06:59N 52°42' E 005°18'0 0.0
2017-Sep-19 06:29N 52°42' E 005°18'0 0.0
2017-Sep-19 05:59N 52°42' E 005°18'0 0.0
2017-Sep-19 05:29N 52°42' E 005°18'0 0.0
2017-Sep-19 04:59N 52°42' E 005°18'0 0.0
2017-Sep-19 04:29N 52°42' E 005°18'0 0.0
2017-Sep-19 03:59N 52°42' E 005°18'0 0.0
2017-Sep-19 03:29N 52°42' E 005°18'0 0.0
2017-Sep-19 02:59N 52°42' E 005°18'0 0.0
2017-Sep-19 02:29N 52°42' E 005°18'0 0.0
2017-Sep-19 01:59N 52°42' E 005°18'0 0.0
2017-Sep-19 01:29N 52°42' E 005°18'0 0.0
2017-Sep-19 00:59N 52°42' E 005°18'0 0.0
2017-Sep-19 00:29N 52°42' E 005°18'0 0.0
2017-Sep-18 23:59N 52°42' E 005°18'0 0.0
2017-Sep-18 23:29N 52°42' E 005°18'0 0.0
2017-Sep-18 22:59N 52°42' E 005°18'0 0.0
2017-Sep-18 22:29N 52°42' E 005°18'0 0.0
2017-Sep-18 21:59N 52°42' E 005°18'0 0.0
2017-Sep-18 21:29N 52°42' E 005°18'0 0.0
2017-Sep-18 20:59N 52°42' E 005°18'0 0.0
2017-Sep-18 20:29N 52°42' E 005°18'0 0.0
2017-Sep-18 19:59N 52°42' E 005°18'0 0.0
2017-Sep-18 19:29N 52°42' E 005°18'0 0.0
2017-Sep-18 18:59N 52°42' E 005°18'0 0.0
2017-Sep-18 18:29N 52°42' E 005°18'0 0.0
2017-Sep-18 17:59N 52°42' E 005°18'0 0.0
2017-Sep-18 17:29N 52°42' E 005°18'0 0.0
2017-Sep-18 16:59N 52°42' E 005°18'0 0.0
2017-Sep-18 16:29N 52°42' E 005°18'0 0.0
2017-Sep-18 15:59N 52°42' E 005°18'0 0.0
2017-Sep-18 15:29N 52°42' E 005°18'0 0.0
2017-Sep-18 14:59N 52°42' E 005°18'0 0.0
2017-Sep-18 14:29N 52°42' E 005°18'0 0.0
2017-Sep-18 13:59N 52°42' E 005°18'0 0.0
2017-Sep-18 13:26N 52°42' E 005°18'0 0.0
2017-Sep-18 12:59N 52°42' E 005°18'0 0.0
2017-Sep-18 12:29N 52°42' E 005°18'0 0.0
2017-Sep-18 11:59N 52°42' E 005°18'0 0.0
2017-Sep-18 11:29N 52°42' E 005°18'0 0.0
2017-Sep-18 10:59N 52°42' E 005°18'0 0.0
2017-Sep-18 10:29N 52°42' E 005°18'0 0.0
2017-Sep-18 09:59N 52°42' E 005°18'0 0.0
2017-Sep-18 09:29N 52°42' E 005°18'0 0.0
2017-Sep-18 08:59N 52°42' E 005°18'0 0.0
2017-Sep-18 08:29N 52°42' E 005°18'0 0.0
2017-Sep-18 07:59N 52°42' E 005°18'0 0.0
2017-Sep-18 07:29N 52°42' E 005°18'0 0.0
2017-Sep-18 06:59N 52°42' E 005°18'0 0.0
2017-Sep-18 06:29N 52°42' E 005°18'0 0.0
2017-Sep-18 05:59N 52°42' E 005°18'0 0.0
2017-Sep-18 05:29N 52°42' E 005°18'0 0.0
2017-Sep-18 04:59N 52°42' E 005°18'0 0.0
2017-Sep-18 04:29N 52°42' E 005°18'0 0.0
2017-Sep-18 03:59N 52°42' E 005°18'0 0.0
2017-Sep-18 03:28N 52°42' E 005°18'0 0.0
2017-Sep-18 02:58N 52°42' E 005°18'0 0.0
2017-Sep-18 02:28N 52°42' E 005°18'0 0.0
2017-Sep-18 01:58N 52°42' E 005°18'0 0.0
2017-Sep-18 01:28N 52°42' E 005°18'0 0.0
2017-Sep-18 00:58N 52°42' E 005°18'0 0.0
2017-Sep-18 00:28N 52°42' E 005°18'0 0.0
2017-Sep-17 23:55N 52°42' E 005°18'0 0.0
2017-Sep-17 23:28N 52°42' E 005°18'0 0.0
2017-Sep-17 22:58N 52°42' E 005°18'0 0.0
2017-Sep-17 22:28N 52°42' E 005°18'0 0.0
2017-Sep-17 21:58N 52°42' E 005°18'0 0.0
2017-Sep-17 21:28N 52°42' E 005°18'0 0.0
2017-Sep-17 20:58N 52°42' E 005°18'0 0.0
2017-Sep-17 20:28N 52°42' E 005°18'0 0.0
2017-Sep-17 19:58N 52°42' E 005°18'0 0.0
2017-Sep-17 19:28N 52°42' E 005°18'0 0.0
2017-Sep-17 18:58N 52°42' E 005°18'0 0.0
2017-Sep-17 18:28N 52°42' E 005°18'0 0.0
2017-Sep-17 17:58N 52°42' E 005°18'0 0.0
2017-Sep-17 17:25N 52°42' E 005°18'0 0.0
2017-Sep-17 16:58N 52°42' E 005°18'0 0.0
2017-Sep-17 16:28N 52°42' E 005°18'0 0.0
2017-Sep-17 15:58N 52°42' E 005°18'0 0.0
2017-Sep-17 15:28N 52°42' E 005°18'0 0.0
2017-Sep-17 14:58N 52°42' E 005°18'0 0.0
2017-Sep-17 14:28N 52°42' E 005°18'0 0.0
2017-Sep-17 13:58N 52°42' E 005°18'0 0.0
2017-Sep-17 13:28N 52°42' E 005°18'0 0.0
2017-Sep-17 12:58N 52°42' E 005°18'0 0.0
2017-Sep-17 12:28N 52°42' E 005°18'0 0.0
2017-Sep-17 11:58N 52°42' E 005°18'0 0.0
2017-Sep-17 11:28N 52°42' E 005°18'0 0.0
2017-Sep-17 10:58N 52°42' E 005°18'0 0.0
2017-Sep-17 10:28N 52°42' E 005°18'0 0.0
2017-Sep-17 09:58N 52°42' E 005°18'0 0.0
2017-Sep-17 09:28N 52°42' E 005°18'0 0.0
2017-Sep-17 08:58N 52°42' E 005°18'0 0.0
2017-Sep-17 08:28N 52°42' E 005°18'0 0.0
2017-Sep-17 07:58N 52°42' E 005°18'0 0.0
2017-Sep-17 07:28N 52°42' E 005°18'0 0.0
2017-Sep-17 06:58N 52°42' E 005°18'0 0.0
2017-Sep-17 06:28N 52°42' E 005°18'0 0.0
2017-Sep-17 05:58N 52°42' E 005°18'0 0.0
2017-Sep-17 05:28N 52°42' E 005°18'0 0.0
2017-Sep-17 04:58N 52°42' E 005°18'0 0.0
2017-Sep-17 04:28N 52°42' E 005°18'0 0.0
2017-Sep-17 03:58N 52°42' E 005°18'0 0.0
2017-Sep-17 03:28N 52°42' E 005°18'0 0.0
2017-Sep-17 02:58N 52°42' E 005°18'0 0.0
2017-Sep-17 02:28N 52°42' E 005°18'0 0.0
2017-Sep-17 01:58N 52°42' E 005°18'0 0.0
2017-Sep-17 01:28N 52°42' E 005°18'0 0.0
2017-Sep-17 00:58N 52°42' E 005°18'0 0.0
2017-Sep-17 00:28N 52°42' E 005°18'0 0.0
2017-Sep-16 23:58N 52°42' E 005°18'0 0.0
2017-Sep-16 23:28N 52°42' E 005°18'0 0.0
2017-Sep-16 22:58N 52°42' E 005°18'0 0.0
2017-Sep-16 22:28N 52°42' E 005°18'0 0.0
2017-Sep-16 21:58N 52°42' E 005°18'0 0.0
2017-Sep-16 21:28N 52°42' E 005°18'0 0.0
2017-Sep-16 20:58N 52°42' E 005°18'0 0.0
2017-Sep-16 20:28N 52°42' E 005°18'0 0.0
2017-Sep-16 19:58N 52°42' E 005°18'0 0.0
2017-Sep-16 19:28N 52°42' E 005°18'0 0.0
2017-Sep-16 18:58N 52°42' E 005°18'0 0.0
2017-Sep-16 18:28N 52°42' E 005°18'0 0.0
2017-Sep-16 17:58N 52°42' E 005°18'0 0.0
2017-Sep-16 17:28N 52°42' E 005°18'0 0.0
2017-Sep-16 16:58N 52°42' E 005°18'0 0.0
2017-Sep-16 16:28N 52°42' E 005°18'0 0.0
2017-Sep-16 15:58N 52°42' E 005°18'0 0.0
2017-Sep-16 15:28N 52°42' E 005°18'0 0.0
2017-Sep-16 14:58N 52°42' E 005°18'0 0.0
2017-Sep-16 14:28N 52°42' E 005°18'0 0.0
2017-Sep-16 13:58N 52°42' E 005°18'0 0.0
2017-Sep-16 13:28N 52°42' E 005°18'0 0.0
2017-Sep-16 13:01N 52°42' E 005°18'0 0.0
2017-Sep-16 12:31N 52°42' E 005°18'0 0.0
2017-Sep-16 12:00N 52°42' E 005°18'0 0.0
2017-Sep-16 11:30N 52°42' E 005°18'0 0.0
2017-Sep-16 11:00N 52°42' E 005°18'0 0.0
2017-Sep-16 10:30N 52°42' E 005°18'0 0.0
2017-Sep-16 09:57N 52°42' E 005°18'0 0.0
2017-Sep-16 09:27N 52°42' E 005°18'0 0.0
2017-Sep-16 08:57N 52°42' E 005°18'0 0.0
2017-Sep-16 08:30N 52°42' E 005°18'0 0.0
2017-Sep-16 08:00N 52°42' E 005°18'0 0.0
2017-Sep-16 07:30N 52°42' E 005°18'0 0.0
2017-Sep-16 07:00N 52°42' E 005°18'0 0.0
2017-Sep-16 06:30N 52°42' E 005°18'0 0.0
2017-Sep-16 05:57N 52°42' E 005°18'0 0.0
2017-Sep-16 05:30N 52°42' E 005°18'0 0.0
2017-Sep-16 04:54N 52°42' E 005°18'0 0.0
2017-Sep-16 04:30N 52°42' E 005°18'0 0.0
2017-Sep-16 04:00N 52°42' E 005°18'0 0.0
2017-Sep-16 03:30N 52°42' E 005°18'0 0.0
2017-Sep-16 03:00N 52°42' E 005°18'0 0.0
2017-Sep-16 02:30N 52°42' E 005°18'0 0.0
2017-Sep-16 02:00N 52°42' E 005°18'0 0.0
2017-Sep-16 01:27N 52°42' E 005°18'0 0.0
2017-Sep-16 00:54N 52°42' E 005°18'0 0.0
2017-Sep-16 00:30N 52°42' E 005°18'0 0.0
2017-Sep-16 00:00N 52°42' E 005°18'0 0.0
2017-Sep-15 23:27N 52°42' E 005°18'0 0.0
2017-Sep-15 23:00N 52°42' E 005°18'0 0.0
2017-Sep-15 22:30N 52°42' E 005°18'0 0.0
2017-Sep-15 22:00N 52°42' E 005°18'0 0.0
2017-Sep-15 21:30N 52°42' E 005°18'0 0.0
2017-Sep-15 21:00N 52°42' E 005°18'0 0.0
2017-Sep-15 20:30N 52°42' E 005°18'0 0.0
2017-Sep-15 20:00N 52°42' E 005°18'0 0.0
2017-Sep-15 19:30N 52°42' E 005°18'0 0.0
2017-Sep-15 19:00N 52°42' E 005°18'0 0.0
2017-Sep-15 18:21N 52°42' E 005°18'0 0.0
2017-Sep-15 18:00N 52°42' E 005°18'0 0.0
2017-Sep-15 17:30N 52°42' E 005°18'0 0.0
2017-Sep-15 17:00N 52°42' E 005°18'0 0.0
2017-Sep-15 16:30N 52°42' E 005°18'0 0.0
2017-Sep-15 16:00N 52°42' E 005°18'0 0.0
2017-Sep-15 15:30N 52°42' E 005°18'0 0.0
2017-Sep-15 15:00N 52°42' E 005°18'0 0.0
2017-Sep-15 14:30N 52°42' E 005°18'0 0.0
2017-Sep-15 14:00N 52°42' E 005°18'1 1.9
2017-Sep-15 13:30N 52°42' E 005°19'2 3.4
2017-Sep-15 13:00N 52°44' E 005°20'2 4.5
2017-Sep-15 12:30N 52°46' E 005°17'1 1.5
2017-Sep-15 12:00N 52°46' E 005°17'3 5.7
2017-Sep-15 11:30N 52°46' E 005°21'3 6.5
2017-Sep-15 11:00N 52°44' E 005°26'4 7.2
2017-Sep-15 10:30N 52°43' E 005°32'3 5.2
2017-Sep-15 10:00N 52°43' E 005°27'3 5.1
2017-Sep-15 09:30N 52°43' E 005°23'2 3.9
2017-Sep-15 09:00N 52°43' E 005°20'1 1.1
2017-Sep-15 08:30N 52°43' E 005°19'1 2.0
2017-Sep-15 08:00N 52°42' E 005°18'0 0.0
2017-Sep-15 07:30N 52°42' E 005°18'0 0.0
2017-Sep-15 07:00N 52°42' E 005°18'0 0.0
2017-Sep-15 06:30N 52°42' E 005°18'  
2017-Sep-12 16:04N 52°42' E 005°18'0 0.0
2017-Sep-12 16:00N 52°42' E 005°18'0 0.3
2017-Sep-12 15:29N 52°42' E 005°18'0 0.0
2017-Sep-12 14:59N 52°42' E 005°18'0 0.0
2017-Sep-12 14:29N 52°42' E 005°18'0 0.6
2017-Sep-12 14:00N 52°42' E 005°18'2 4.9
2017-Sep-12 13:30N 52°44' E 005°20'2 4.0
2017-Sep-12 13:00N 52°43' E 005°22'3 6.6
2017-Sep-12 12:30N 52°46' E 005°20'2 3.7
2017-Sep-12 12:00N 52°47' E 005°17'3 6.7
2017-Sep-12 11:30N 52°44' E 005°19'1 2.5
2017-Sep-12 11:01N 52°42' E 005°19'1 1.6
2017-Sep-12 10:29N 52°42' E 005°18'0 0.0
2017-Sep-12 09:59N 52°42' E 005°18'0 0.0
2017-Sep-12 09:29N 52°42' E 005°18'0 0.0
2017-Sep-12 08:59N 52°42' E 005°18'0 0.0
2017-Sep-12 08:29N 52°42' E 005°18'0 0.0
2017-Sep-12 07:59N 52°42' E 005°18'0 0.0
2017-Sep-12 07:29N 52°42' E 005°18'0 0.0
2017-Sep-12 06:59N 52°42' E 005°18'  

Dump ship's entire track history